Time;durP1;ratioP1;P1;durP2;ratioP2;P2;SDS_P1;SDS_P2;PMS_P1;PMS_P2;Temp;Humidity;BMP_temperature;BMP_pressure;BME280_temperature;BME280_humidity;BME280_pressure;Samples;Min_cycle;Max_cycle;Signal;HPM_P1;HPM_P2
2022/08/01 00:02:17;;;;;;;0.37;0.37;;;22.30;99.80;;;;;;4461140;32;20122;-75
2022/08/01 00:04:42;;;;;;;0.45;0.40;;;22.30;99.90;;;;;;4461259;32;20084;-74
2022/08/01 00:07:07;;;;;;;5.07;0.90;;;22.40;99.90;;;;;;4462222;32;20073;-74
2022/08/01 00:09:33;;;;;;;0.20;0.20;;;22.40;99.90;;;;;;4461040;32;20426;-74
2022/08/01 00:11:59;;;;;;;0.90;0.75;;;22.30;99.90;;;;;;4462390;32;20127;-74
2022/08/01 00:14:24;;;;;;;0.30;0.30;;;22.20;99.90;;;;;;4461039;32;20085;-74
2022/08/01 00:16:50;;;;;;;0.40;0.40;;;22.10;99.90;;;;;;4461399;32;20084;-74
2022/08/01 00:19:15;;;;;;;0.52;0.52;;;22.10;99.90;;;;;;4446574;32;20061;-73
2022/08/01 00:21:41;;;;;;;0.70;0.37;;;22.20;99.90;;;;;;4435560;32;20120;-74
2022/08/01 00:24:06;;;;;;;0.40;0.40;;;22.10;99.90;;;;;;4427721;32;20065;-74
2022/08/01 00:26:32;;;;;;;0.25;0.25;;;22.00;99.90;;;;;;4443682;32;20072;-73
2022/08/01 00:28:57;;;;;;;0.30;0.30;;;21.90;99.90;;;;;;4445063;32;20172;-74
2022/08/01 00:31:23;;;;;;;0.30;0.30;;;21.90;99.90;;;;;;4445513;32;20066;-73
2022/08/01 00:33:48;;;;;;;1.23;0.85;;;22.00;99.90;;;;;;4445200;32;20073;-73
2022/08/01 00:36:13;;;;;;;0.75;0.68;;;22.10;99.90;;;;;;4445269;32;20293;-74
2022/08/01 00:38:39;;;;;;;0.30;0.30;;;22.00;99.90;;;;;;4444645;32;20076;-74
2022/08/01 00:41:05;;;;;;;0.65;0.65;;;22.00;99.90;;;;;;4445188;32;20057;-74
2022/08/01 00:43:30;;;;;;;0.20;0.20;;;21.90;99.90;;;;;;4444788;32;20069;-73
2022/08/01 00:45:55;;;;;;;0.20;0.20;;;21.80;99.90;;;;;;4453711;32;20110;-73
2022/08/01 00:48:21;;;;;;;1.37;0.60;;;21.70;99.90;;;;;;4447103;32;20509;-73
2022/08/01 00:50:47;;;;;;;0.30;0.30;;;21.60;99.90;;;;;;4440953;32;20090;-74
2022/08/01 00:53:12;;;;;;;0.22;0.22;;;21.60;99.90;;;;;;4426469;32;20604;-74
2022/08/01 00:55:38;;;;;;;0.90;0.65;;;21.50;99.90;;;;;;4438977;32;20109;-73
2022/08/01 00:58:04;;;;;;;1.90;1.00;;;21.60;99.90;;;;;;4445040;32;20467;-73
2022/08/01 01:00:30;;;;;;;0.20;0.20;;;21.60;99.90;;;;;;4445336;32;20057;-73
2022/08/01 01:02:56;;;;;;;0.47;0.47;;;21.60;99.90;;;;;;4446386;32;20556;-73
2022/08/01 01:05:21;;;;;;;1.08;0.75;;;21.60;99.90;;;;;;4445443;32;20085;-73
2022/08/01 01:08:01;;;;;;;2.53;1.08;;;21.60;99.90;;;;;;4444759;32;20115;-74
2022/08/01 01:10:38;;;;;;;0.40;0.40;;;21.70;99.90;;;;;;4444955;32;20073;-74
2022/08/01 01:13:09;;;;;;;0.40;0.40;;;21.60;99.90;;;;;;4445561;32;20086;-74
2022/08/01 01:15:41;;;;;;;0.30;0.30;;;21.60;99.90;;;;;;4446009;32;20068;-74
2022/08/01 01:18:25;;;;;;;0.40;0.40;;;21.50;99.90;;;;;;4444933;32;20466;-74
2022/08/01 01:21:10;;;;;;;0.30;0.30;;;21.40;99.90;;;;;;4456022;32;20138;-75
2022/08/01 01:24:03;;;;;;;0.30;0.30;;;21.40;99.90;;;;;;4439819;32;20086;-74
2022/08/01 01:26:57;;;;;;;0.75;0.70;;;21.50;99.90;;;;;;4457187;32;20080;-74
2022/08/01 01:29:31;;;;;;;0.32;0.32;;;21.50;99.90;;;;;;4461303;32;20061;-74
2022/08/01 01:32:09;;;;;;;6.53;0.62;;;21.40;99.90;;;;;;4460258;32;20068;-75
2022/08/01 01:34:37;;;;;;;0.50;0.50;;;21.40;99.90;;;;;;4459811;32;20069;-75
2022/08/01 01:37:07;;;;;;;0.40;0.40;;;21.40;99.90;;;;;;4460270;32;20119;-74
2022/08/01 01:39:34;;;;;;;0.40;0.40;;;21.50;99.90;;;;;;4460029;32;20097;-74
2022/08/01 01:42:02;;;;;;;0.35;0.35;;;21.40;99.90;;;;;;4460627;32;20281;-75
2022/08/01 01:44:28;;;;;;;0.20;0.20;;;21.40;99.90;;;;;;4458785;32;20073;-74
2022/08/01 01:46:56;;;;;;;0.65;0.65;;;21.20;99.90;;;;;;4444595;32;20130;-74
2022/08/01 01:49:25;;;;;;;0.37;0.37;;;21.20;99.90;;;;;;4454517;32;20076;-75
2022/08/01 01:51:55;;;;;;;6.43;2.12;;;21.10;99.90;;;;;;4446747;32;20142;-75
2022/08/01 01:54:23;;;;;;;1.23;0.47;;;21.10;99.90;;;;;;4443345;32;20109;-74
2022/08/01 01:56:50;;;;;;;0.47;0.47;;;21.10;99.90;;;;;;4451259;32;20064;-74
2022/08/01 01:59:20;;;;;;;0.50;0.50;;;21.10;99.90;;;;;;4447249;32;20065;-74
2022/08/01 02:01:47;;;;;;;0.30;0.30;;;21.10;99.90;;;;;;4447030;32;20073;-74
2022/08/01 02:04:13;;;;;;;0.28;0.28;;;21.10;99.90;;;;;;4447718;32;20061;-74
2022/08/01 02:06:40;;;;;;;0.32;0.32;;;21.10;99.90;;;;;;4446643;32;20120;-74
2022/08/01 02:09:08;;;;;;;0.82;0.80;;;21.10;99.90;;;;;;4447251;32;20068;-74
2022/08/01 02:11:35;;;;;;;0.40;0.40;;;20.90;99.90;;;;;;4447165;32;20069;-74
2022/08/01 02:14:03;;;;;;;0.85;0.57;;;21.00;99.90;;;;;;4447366;32;20123;-74
2022/08/01 02:16:33;;;;;;;0.40;0.40;;;20.80;99.90;;;;;;4446199;32;20064;-75
2022/08/01 02:18:59;;;;;;;0.40;0.40;;;20.70;99.90;;;;;;4449979;32;20077;-74
2022/08/01 02:21:30;;;;;;;0.30;0.30;;;20.70;99.90;;;;;;4453257;32;20244;-74
2022/08/01 02:24:02;;;;;;;0.30;0.30;;;20.70;99.90;;;;;;4442230;32;20398;-75
2022/08/01 02:26:29;;;;;;;0.47;0.47;;;20.60;99.90;;;;;;4461193;32;20500;-74
2022/08/01 02:28:59;;;;;;;4.28;1.27;;;20.60;99.90;;;;;;4462888;32;20077;-74
2022/08/01 02:31:26;;;;;;;0.37;0.37;;;20.60;99.90;;;;;;4462659;32;20053;-74
2022/08/01 02:34:05;;;;;;;0.52;0.52;;;20.70;99.90;;;;;;4462584;32;20189;-74
2022/08/01 02:36:33;;;;;;;0.30;0.30;;;20.70;99.90;;;;;;4461973;32;20099;-75
2022/08/01 02:39:02;;;;;;;0.40;0.40;;;20.70;99.90;;;;;;4462405;32;20406;-74
2022/08/01 02:41:29;;;;;;;0.43;0.43;;;20.70;99.90;;;;;;4463160;32;20068;-74
2022/08/01 02:44:18;;;;;;;0.28;0.28;;;20.70;99.90;;;;;;4450984;32;20069;-74
2022/08/01 02:46:51;;;;;;;0.47;0.47;;;20.70;99.90;;;;;;4445278;32;20431;-74
2022/08/01 02:49:19;;;;;;;0.50;0.45;;;20.80;99.90;;;;;;4446489;32;20355;-74
2022/08/01 02:51:47;;;;;;;0.50;0.50;;;20.80;99.90;;;;;;4433920;32;20127;-74
2022/08/01 02:54:17;;;;;;;0.37;0.37;;;20.80;99.90;;;;;;4429256;32;20069;-74
2022/08/01 02:56:44;;;;;;;0.25;0.25;;;20.80;99.90;;;;;;4446077;32;20069;-74
2022/08/01 02:59:14;;;;;;;0.37;0.37;;;20.80;99.90;;;;;;4447172;32;20076;-74
2022/08/01 03:01:42;;;;;;;0.45;0.45;;;20.80;99.90;;;;;;4446511;32;20060;-74
2022/08/01 03:04:08;;;;;;;0.50;0.50;;;20.80;99.90;;;;;;4446066;32;20068;-74
2022/08/01 03:06:35;;;;;;;0.50;0.50;;;20.70;99.90;;;;;;4446241;32;20061;-74
2022/08/01 03:09:02;;;;;;;21.42;0.60;;;20.60;99.90;;;;;;4447159;32;20513;-74
2022/08/01 03:11:29;;;;;;;0.30;0.30;;;20.60;99.90;;;;;;4445669;32;20072;-74
2022/08/01 03:13:58;;;;;;;0.30;0.30;;;20.70;99.90;;;;;;4446265;32;20081;-74
2022/08/01 03:16:26;;;;;;;0.65;0.60;;;20.60;99.90;;;;;;4445508;32;20077;-74
2022/08/01 03:18:54;;;;;;;0.52;0.52;;;20.70;99.90;;;;;;4448605;32;20367;-74
2022/08/01 03:21:22;;;;;;;0.62;0.50;;;20.60;99.90;;;;;;4453836;32;20064;-74
2022/08/01 03:23:50;;;;;;;0.57;0.57;;;20.50;99.90;;;;;;4441103;32;20135;-74
2022/08/01 03:26:17;;;;;;;0.50;0.50;;;20.50;99.90;;;;;;4457550;32;20082;-74
2022/08/01 03:28:45;;;;;;;0.40;0.40;;;20.60;99.90;;;;;;4461789;32;20077;-74
2022/08/01 03:31:13;;;;;;;0.80;0.77;;;20.60;99.90;;;;;;4461455;32;20524;-74
2022/08/01 03:33:39;;;;;;;0.30;0.30;;;20.50;99.90;;;;;;4462123;32;20076;-74
2022/08/01 03:36:09;;;;;;;0.37;0.37;;;20.50;99.90;;;;;;4461082;32;20120;-74
2022/08/01 03:38:37;;;;;;;0.40;0.40;;;20.50;99.90;;;;;;4462401;32;20547;-74
2022/08/01 03:41:11;;;;;;;0.75;0.75;;;20.50;99.90;;;;;;4461405;32;20069;-74
2022/08/01 03:43:50;;;;;;;0.62;0.62;;;20.40;99.90;;;;;;4461163;32;20099;-74
2022/08/01 03:46:22;;;;;;;0.30;0.30;;;20.40;99.90;;;;;;4450679;32;20418;-74
2022/08/01 03:48:50;;;;;;;0.37;0.37;;;20.40;99.90;;;;;;4445681;32;20081;-74
2022/08/01 03:51:18;;;;;;;0.22;0.22;;;20.50;99.90;;;;;;4437862;32;20135;-74
2022/08/01 03:53:46;;;;;;;0.40;0.40;;;20.50;99.90;;;;;;4428220;32;20070;-74
2022/08/01 03:56:16;;;;;;;1.17;0.52;;;20.50;99.90;;;;;;4442803;32;20077;-74
2022/08/01 03:58:43;;;;;;;0.43;0.43;;;20.50;99.90;;;;;;4444795;32;20127;-74
2022/08/01 04:01:09;;;;;;;1.45;0.85;;;20.50;99.90;;;;;;4445503;32;20175;-74
2022/08/01 04:03:35;;;;;;;0.30;0.30;;;20.50;99.90;;;;;;4445184;32;20057;-74
2022/08/01 04:06:04;;;;;;;0.57;0.40;;;20.60;99.90;;;;;;4446095;32;20054;-74
2022/08/01 04:08:38;;;;;;;0.30;0.30;;;20.50;99.90;;;;;;4445656;32;20517;-74
2022/08/01 04:11:04;;;;;;;0.30;0.30;;;20.60;99.90;;;;;;4445539;32;20124;-74
2022/08/01 04:13:31;;;;;;;5.12;0.60;;;20.60;99.90;;;;;;4445738;32;20453;-73
2022/08/01 04:15:57;;;;;;;0.37;0.37;;;20.60;99.90;;;;;;4445369;32;20085;-73
2022/08/01 04:18:22;;;;;;;0.22;0.22;;;20.60;99.90;;;;;;4444917;32;20068;-74
2022/08/01 04:20:48;;;;;;;0.75;0.75;;;20.60;99.90;;;;;;4457564;32;20101;-74
2022/08/01 04:23:17;;;;;;;0.30;0.30;;;20.60;99.90;;;;;;4442249;32;20879;-74
2022/08/01 04:25:44;;;;;;;0.60;0.60;;;20.60;99.90;;;;;;4453056;32;20069;-74
2022/08/01 04:28:15;;;;;;;1.45;0.40;;;20.50;99.90;;;;;;4460361;32;20073;-73
2022/08/01 04:30:45;;;;;;;0.40;0.40;;;20.50;99.90;;;;;;4460970;32;20057;-74
2022/08/01 04:33:13;;;;;;;0.50;0.50;;;20.40;99.90;;;;;;4460806;32;20088;-74
2022/08/01 04:35:41;;;;;;;0.35;0.35;;;20.30;99.90;;;;;;4461398;32;20061;-74
2022/08/01 04:38:08;;;;;;;0.65;0.62;;;20.20;99.90;;;;;;4460577;32;20081;-74
2022/08/01 04:40:36;;;;;;;0.32;0.32;;;20.30;99.90;;;;;;4460841;32;20192;-74
2022/08/01 04:43:02;;;;;;;0.32;0.32;;;20.30;99.90;;;;;;4461270;32;20072;-74
2022/08/01 04:45:28;;;;;;;0.40;0.40;;;20.40;99.90;;;;;;4460548;32;20068;-74
2022/08/01 04:47:56;;;;;;;0.40;0.40;;;20.40;99.90;;;;;;4460570;32;20080;-74
2022/08/01 04:50:22;;;;;;;0.30;0.30;;;20.40;99.90;;;;;;4455579;32;82628;-74
2022/08/01 04:52:48;;;;;;;0.52;0.52;;;20.50;99.90;;;;;;4424385;32;20468;-74
2022/08/01 04:55:13;;;;;;;4.10;1.17;;;20.50;99.90;;;;;;4433403;32;20061;-74
2022/08/01 04:57:42;;;;;;;0.40;0.40;;;20.50;99.90;;;;;;4445594;32;20511;-74
2022/08/01 05:00:08;;;;;;;0.40;0.40;;;20.30;99.90;;;;;;4446145;32;20119;-74
2022/08/01 05:02:34;;;;;;;2.97;0.88;;;20.30;99.90;;;;;;4441468;32;20069;-74
2022/08/01 05:05:00;;;;;;;0.30;0.30;;;20.30;99.90;;;;;;4435876;32;20840;-74
2022/08/01 05:07:25;;;;;;;0.77;0.77;;;20.30;99.90;;;;;;4451455;32;20064;-74
2022/08/01 05:09:51;;;;;;;1.15;0.68;;;20.30;99.90;;;;;;4451369;32;20147;-74
2022/08/01 05:12:16;;;;;;;0.40;0.40;;;20.30;99.90;;;;;;4451526;32;20076;-74
2022/08/01 05:14:42;;;;;;;2.45;1.00;;;20.40;99.90;;;;;;4459200;32;20081;-74
2022/08/01 05:17:09;;;;;;;0.40;0.30;;;20.30;99.90;;;;;;4460251;32;20088;-74
2022/08/01 05:19:36;;;;;;;0.30;0.30;;;20.30;99.90;;;;;;4452470;32;20061;-74
2022/08/01 05:22:05;;;;;;;1.60;0.90;;;20.40;99.90;;;;;;4445434;32;20109;-74
2022/08/01 05:24:31;;;;;;;0.30;0.30;;;20.40;99.90;;;;;;4443460;32;20068;-74
2022/08/01 05:26:57;;;;;;;0.62;0.62;;;20.40;99.90;;;;;;4461254;32;20878;-74
2022/08/01 05:29:23;;;;;;;0.40;0.40;;;20.40;99.90;;;;;;4459558;32;20072;-74
2022/08/01 05:31:49;;;;;;;0.30;0.30;;;20.40;99.90;;;;;;4454101;32;20061;-74
2022/08/01 05:34:15;;;;;;;1.10;0.47;;;20.50;99.90;;;;;;4451273;32;20060;-74
2022/08/01 05:36:40;;;;;;;0.45;0.45;;;20.60;99.90;;;;;;4460738;32;20064;-74
2022/08/01 05:39:06;;;;;;;0.35;0.35;;;20.60;99.90;;;;;;4459835;32;20056;-74
2022/08/01 05:41:31;;;;;;;0.35;0.35;;;20.70;99.90;;;;;;4460247;32;20119;-74
2022/08/01 05:43:57;;;;;;;0.40;0.40;;;20.70;99.90;;;;;;4460121;32;20402;-74
2022/08/01 05:46:22;;;;;;;1.00;0.50;;;20.80;99.90;;;;;;4459396;32;20069;-74
2022/08/01 05:48:48;;;;;;;0.30;0.30;;;20.90;99.90;;;;;;4451028;32;20132;-74
2022/08/01 05:51:13;;;;;;;0.47;0.43;;;20.90;99.90;;;;;;4437489;32;20073;-74
2022/08/01 05:53:39;;;;;;;1.37;0.55;;;20.90;99.90;;;;;;4424533;32;20069;-74
2022/08/01 05:56:04;;;;;;;0.90;0.37;;;20.90;99.90;;;;;;4448876;32;20077;-74
2022/08/01 05:58:31;;;;;;;0.35;0.35;;;20.80;99.90;;;;;;4445389;32;20066;-74
2022/08/01 06:00:57;;;;;;;0.65;0.30;;;20.80;99.90;;;;;;4441379;32;20611;-74
2022/08/01 06:03:22;;;;;;;0.40;0.40;;;20.80;99.90;;;;;;4434231;32;20127;-73
2022/08/01 06:05:48;;;;;;;0.68;0.50;;;20.70;99.90;;;;;;4440414;32;20423;-73
2022/08/01 06:08:13;;;;;;;0.40;0.40;;;20.80;99.90;;;;;;4443978;32;20073;-73
2022/08/01 06:10:39;;;;;;;0.40;0.40;;;20.80;99.90;;;;;;4445528;32;20080;-73
2022/08/01 06:13:04;;;;;;;0.30;0.30;;;20.80;99.90;;;;;;4444253;32;20138;-73
2022/08/01 06:15:31;;;;;;;0.40;0.40;;;20.90;99.90;;;;;;4444782;32;20481;-73
2022/08/01 06:17:56;;;;;;;0.40;0.40;;;21.00;99.90;;;;;;4445125;32;20074;-73
2022/08/01 06:20:22;;;;;;;0.40;0.40;;;21.00;99.90;;;;;;4445083;32;20434;-73
2022/08/01 06:22:47;;;;;;;0.55;0.55;;;21.00;99.90;;;;;;4441342;32;20061;-73
2022/08/01 06:25:12;;;;;;;0.30;0.30;;;20.90;99.90;;;;;;4449996;32;20073;-73
2022/08/01 06:27:38;;;;;;;0.37;0.30;;;20.80;99.90;;;;;;4460674;32;20631;-73
2022/08/01 06:30:05;;;;;;;0.20;0.20;;;20.70;99.90;;;;;;4459347;32;20060;-74
2022/08/01 06:32:31;;;;;;;0.20;0.20;;;20.60;99.90;;;;;;4451292;32;20568;-74
2022/08/01 06:34:56;;;;;;;0.30;0.30;;;20.60;99.90;;;;;;4454281;32;20077;-73
2022/08/01 06:37:22;;;;;;;0.30;0.30;;;20.50;99.90;;;;;;4459836;32;20497;-74
2022/08/01 06:39:49;;;;;;;0.25;0.25;;;20.50;99.90;;;;;;4459630;32;20068;-74
2022/08/01 06:42:15;;;;;;;1.02;0.95;;;20.40;99.90;;;;;;4462285;32;20069;-73
2022/08/01 06:44:41;;;;;;;0.70;0.70;;;20.30;99.90;;;;;;4462091;32;20436;-73
2022/08/01 06:47:06;;;;;;;0.20;0.20;;;20.30;99.90;;;;;;4446613;32;20057;-73
2022/08/01 06:49:32;;;;;;;0.40;0.40;;;20.30;99.90;;;;;;4446732;32;20041;-74
2022/08/01 06:51:57;;;;;;;0.32;0.32;;;20.40;99.90;;;;;;4445193;32;20095;-73
2022/08/01 06:54:23;;;;;;;0.40;0.40;;;20.50;99.90;;;;;;4445887;32;20394;-74
2022/08/01 06:56:48;;;;;;;0.20;0.20;;;20.60;99.90;;;;;;4462071;32;20116;-73
2022/08/01 06:59:14;;;;;;;2.37;0.90;;;20.60;99.90;;;;;;4462168;32;20072;-74
2022/08/01 07:01:39;;;;;;;0.20;0.20;;;20.60;99.90;;;;;;4455896;32;20061;-74
2022/08/01 07:04:05;;;;;;;0.32;0.32;;;20.60;99.90;;;;;;4453966;32;20081;-73
2022/08/01 07:06:30;;;;;;;0.30;0.30;;;20.60;99.90;;;;;;4461288;32;20072;-73
2022/08/01 07:08:56;;;;;;;0.85;0.40;;;20.70;99.90;;;;;;4463104;32;20093;-73
2022/08/01 07:11:23;;;;;;;1.40;0.57;;;20.90;99.90;;;;;;4462320;32;20560;-73
2022/08/01 07:13:49;;;;;;;0.40;0.40;;;20.90;99.90;;;;;;4462067;32;20516;-73
2022/08/01 07:16:16;;;;;;;0.20;0.20;;;20.70;99.90;;;;;;4462566;32;20057;-73
2022/08/01 07:18:42;;;;;;;1.98;0.30;;;20.70;99.90;;;;;;4462433;32;20064;-73
2022/08/01 07:21:08;;;;;;;0.75;0.30;;;20.90;99.90;;;;;;4456292;32;20078;-74
2022/08/01 07:23:33;;;;;;;0.40;0.40;;;21.00;99.90;;;;;;4431737;32;20064;-73
2022/08/01 07:26:01;;;;;;;1.00;0.45;;;21.10;99.90;;;;;;4442467;32;20125;-73
2022/08/01 07:28:27;;;;;;;0.52;0.47;;;21.20;99.90;;;;;;4448200;32;20118;-73
2022/08/01 07:30:52;;;;;;;0.30;0.30;;;21.00;99.90;;;;;;4443546;32;20167;-73
2022/08/01 07:33:18;;;;;;;0.55;0.55;;;20.90;99.90;;;;;;4437596;32;20579;-73
2022/08/01 07:35:43;;;;;;;0.75;0.60;;;21.00;99.90;;;;;;4443078;32;20436;-73
2022/08/01 07:38:09;;;;;;;0.20;0.20;;;21.10;99.90;;;;;;4446972;32;20492;-73
2022/08/01 07:40:34;;;;;;;0.37;0.37;;;21.10;99.90;;;;;;4446590;32;20065;-73
2022/08/01 07:43:00;;;;;;;0.30;0.30;;;21.20;99.90;;;;;;4446666;32;20122;-73
2022/08/01 07:45:26;;;;;;;0.43;0.43;;;21.40;99.90;;;;;;4452037;32;20061;-73
2022/08/01 07:47:52;;;;;;;0.37;0.30;;;21.40;99.90;;;;;;4461901;32;20090;-73
2022/08/01 07:50:18;;;;;;;0.32;0.32;;;21.40;99.90;;;;;;4461435;32;20455;-74
2022/08/01 07:52:44;;;;;;;0.40;0.40;;;21.40;99.90;;;;;;4442150;32;20065;-73
2022/08/01 07:55:10;;;;;;;0.30;0.30;;;21.20;99.90;;;;;;4449920;32;20091;-74
2022/08/01 07:57:36;;;;;;;0.40;0.40;;;21.10;99.90;;;;;;4462400;32;20068;-73
2022/08/01 08:00:05;;;;;;;0.30;0.30;;;21.10;99.90;;;;;;4462453;32;20073;-73
2022/08/01 08:02:31;;;;;;;0.30;0.25;;;21.20;99.90;;;;;;4452917;32;20073;-73
2022/08/01 08:04:56;;;;;;;0.43;0.43;;;21.20;99.90;;;;;;4455355;32;20490;-74
2022/08/01 08:07:22;;;;;;;0.65;0.50;;;21.10;99.90;;;;;;4461558;32;20501;-74
2022/08/01 08:09:47;;;;;;;0.37;0.37;;;21.10;99.90;;;;;;4461511;32;20108;-74
2022/08/01 08:12:13;;;;;;;0.20;0.20;;;21.10;99.90;;;;;;4461699;32;20106;-74
2022/08/01 08:14:38;;;;;;;0.40;0.40;;;21.10;99.90;;;;;;4462052;32;20064;-74
2022/08/01 08:17:05;;;;;;;0.30;0.30;;;21.10;99.90;;;;;;4461408;32;20515;-74
2022/08/01 08:19:33;;;;;;;0.50;0.50;;;21.10;99.90;;;;;;4461699;32;20339;-74
2022/08/01 08:21:59;;;;;;;0.40;0.40;;;21.00;99.90;;;;;;4447359;32;20142;-74
2022/08/01 08:24:25;;;;;;;0.32;0.32;;;21.10;99.90;;;;;;4444296;32;20105;-75
2022/08/01 08:26:53;;;;;;;0.45;0.40;;;21.00;99.90;;;;;;4461080;32;20068;-74
2022/08/01 08:29:19;;;;;;;0.30;0.30;;;21.20;99.90;;;;;;4461818;32;20069;-75
2022/08/01 08:31:44;;;;;;;0.22;0.22;;;21.30;99.90;;;;;;4455609;32;20150;-74
2022/08/01 08:34:10;;;;;;;0.30;0.30;;;21.50;99.90;;;;;;4452053;32;20422;-74
2022/08/01 08:36:36;;;;;;;0.40;0.40;;;21.70;99.90;;;;;;4462839;32;20125;-74
2022/08/01 08:39:02;;;;;;;0.20;0.20;;;22.00;99.90;;;;;;4461430;32;20061;-74
2022/08/01 08:41:31;;;;;;;0.20;0.20;;;22.20;99.90;;;;;;4461962;32;20093;-75
2022/08/01 08:43:58;;;;;;;0.22;0.22;;;22.20;99.90;;;;;;4461283;32;20076;-74
2022/08/01 08:46:26;;;;;;;0.22;0.22;;;22.20;99.90;;;;;;4462389;32;20088;-74
2022/08/01 08:48:52;;;;;;;0.20;0.20;;;22.20;99.90;;;;;;4462352;32;20090;-74
2022/08/01 08:51:19;;;;;;;0.13;0.13;;;22.10;99.90;;;;;;4455152;32;20130;-74
2022/08/01 08:53:46;;;;;;;1.05;0.50;;;22.20;99.90;;;;;;4444362;32;20057;-74
2022/08/01 08:56:13;;;;;;;0.20;0.20;;;22.30;99.90;;;;;;4443417;32;20065;-75
2022/08/01 08:58:41;;;;;;;0.20;0.20;;;22.30;99.90;;;;;;4445885;32;20078;-74
2022/08/01 09:01:08;;;;;;;0.10;0.10;;;22.40;99.90;;;;;;4441463;32;20057;-75
2022/08/01 09:03:34;;;;;;;0.28;0.28;;;22.20;99.90;;;;;;4434993;32;20498;-74
2022/08/01 09:06:00;;;;;;;0.20;0.20;;;22.10;99.90;;;;;;4443371;32;20072;-75
2022/08/01 09:08:26;;;;;;;0.20;0.20;;;22.10;99.90;;;;;;4445308;32;20426;-74
2022/08/01 09:10:51;;;;;;;3.40;0.32;;;22.00;99.90;;;;;;4445583;32;20355;-74
2022/08/01 09:13:17;;;;;;;0.30;0.30;;;22.10;99.90;;;;;;4445966;32;20073;-74
2022/08/01 09:15:44;;;;;;;0.20;0.20;;;22.00;99.90;;;;;;4445902;32;20082;-74
2022/08/01 09:18:28;;;;;;;0.30;0.30;;;22.00;99.90;;;;;;4445212;32;20068;-74
2022/08/01 09:21:16;;;;;;;0.40;0.40;;;22.10;99.90;;;;;;4440503;32;20069;-75
2022/08/01 09:23:45;;;;;;;0.20;0.20;;;22.10;99.90;;;;;;4427678;32;20085;-74
2022/08/01 09:26:12;;;;;;;0.30;0.30;;;22.00;99.90;;;;;;4443624;32;20133;-74
2022/08/01 09:28:38;;;;;;;0.60;0.45;;;22.10;99.90;;;;;;4446049;32;20090;-74
2022/08/01 09:31:08;;;;;;;0.13;0.13;;;22.10;99.90;;;;;;4441113;32;20077;-75
2022/08/01 09:33:52;;;;;;;0.20;0.20;;;22.10;99.90;;;;;;4435195;32;20073;-74
2022/08/01 09:36:18;;;;;;;0.30;0.30;;;22.10;99.90;;;;;;4443550;32;20512;-74
2022/08/01 09:38:45;;;;;;;0.20;0.20;;;22.10;99.90;;;;;;4444805;32;20490;-73
2022/08/01 09:41:11;;;;;;;0.10;0.10;;;22.10;99.90;;;;;;4445312;32;20066;-73
2022/08/01 09:43:37;;;;;;;0.30;0.30;;;22.20;99.90;;;;;;4445999;32;20081;-73
2022/08/01 09:46:11;;;;;;;1.90;0.82;;;22.30;99.90;;;;;;4453641;32;20492;-73
2022/08/01 09:48:39;;;;;;;0.20;0.20;;;22.40;99.90;;;;;;4461054;32;20398;-73
2022/08/01 09:51:06;;;;;;;0.20;0.20;;;22.40;99.90;;;;;;4455109;32;20073;-73
2022/08/01 09:53:48;;;;;;;0.30;0.30;;;22.40;99.90;;;;;;4440010;32;20571;-73
2022/08/01 09:56:14;;;;;;;0.37;0.37;;;22.40;99.90;;;;;;4441771;32;20064;-73
2022/08/01 09:58:57;;;;;;;0.85;0.25;;;22.30;99.90;;;;;;4445350;32;20069;-72
2022/08/01 10:01:23;;;;;;;0.10;0.10;;;22.20;99.90;;;;;;4440192;32;20065;-74
2022/08/01 10:04:11;;;;;;;0.20;0.20;;;22.10;99.90;;;;;;4434129;32;20139;-73
2022/08/01 10:06:38;;;;;;;0.90;0.70;;;21.90;99.90;;;;;;4443060;32;20116;-73
2022/08/01 10:09:04;;;;;;;0.30;0.30;;;21.90;99.90;;;;;;4444917;32;20554;-74
2022/08/01 10:11:31;;;;;;;0.40;0.40;;;21.90;99.90;;;;;;4444754;32;20069;-74
2022/08/01 10:14:00;;;;;;;0.20;0.20;;;21.90;99.90;;;;;;4445307;32;20061;-74
2022/08/01 10:16:27;;;;;;;0.30;0.30;;;21.80;99.90;;;;;;4446871;32;20097;-74
2022/08/01 10:18:54;;;;;;;0.20;0.20;;;21.80;99.90;;;;;;4447963;32;20077;-74
2022/08/01 10:21:22;;;;;;;0.20;0.20;;;21.90;99.90;;;;;;4440188;32;20076;-74
2022/08/01 10:23:47;;;;;;;2.17;0.30;;;22.00;99.90;;;;;;4428379;32;20840;-74
2022/08/01 10:26:14;;;;;;;0.20;0.20;;;22.10;99.90;;;;;;4443429;32;20069;-74
2022/08/01 10:28:42;;;;;;;0.25;0.25;;;22.10;99.90;;;;;;4447499;32;20065;-74
2022/08/01 10:31:08;;;;;;;0.20;0.20;;;22.10;99.90;;;;;;4443327;32;20155;-74
2022/08/01 10:33:36;;;;;;;0.30;0.30;;;22.20;99.90;;;;;;4436679;32;20123;-74
2022/08/01 10:36:02;;;;;;;0.20;0.20;;;22.20;99.90;;;;;;4444781;32;20065;-74
2022/08/01 10:38:28;;;;;;;0.28;0.28;;;22.30;99.90;;;;;;4447265;32;20062;-73
2022/08/01 10:40:56;;;;;;;0.20;0.20;;;22.40;99.90;;;;;;4447465;32;20119;-74
2022/08/01 10:43:22;;;;;;;0.30;0.30;;;22.50;99.90;;;;;;4447830;32;20061;-74
2022/08/01 10:45:48;;;;;;;0.30;0.30;;;22.50;99.90;;;;;;4447363;32;20536;-73
2022/08/01 10:48:54;;;;;;;0.40;0.37;;;22.50;99.90;;;;;;4447163;32;20129;-73
2022/08/01 10:51:21;;;;;;;0.30;0.30;;;22.30;99.90;;;;;;4430476;32;20080;-74
2022/08/01 10:53:51;;;;;;;0.25;0.25;;;22.30;99.90;;;;;;4431265;32;20130;-73
2022/08/01 10:56:17;;;;;;;0.20;0.20;;;22.30;99.90;;;;;;4460535;32;20111;-73
2022/08/01 10:58:45;;;;;;;0.10;0.10;;;22.40;99.90;;;;;;4463315;32;20080;-73
2022/08/01 11:01:24;;;;;;;0.40;0.40;;;22.40;99.90;;;;;;4457508;32;20548;-73
2022/08/01 11:04:11;;;;;;;0.20;0.20;;;22.40;99.90;;;;;;4451356;32;20131;-73
2022/08/01 11:06:41;;;;;;;0.20;0.20;;;22.50;99.90;;;;;;4460280;32;20464;-73
2022/08/01 11:09:15;;;;;;;;;;;22.50;99.90;;;;;;4462453;32;20114;-73
2022/08/01 11:12:10;;;;;;;0.20;0.20;;;22.50;99.90;;;;;;4462509;32;19963;-73
2022/08/01 11:15:00;;;;;;;0.30;0.30;;;22.60;99.90;;;;;;4462065;32;20061;-73
2022/08/01 11:17:35;;;;;;;0.20;0.20;;;22.60;99.90;;;;;;4461048;32;20137;-73
2022/08/01 11:20:10;;;;;;;0.30;0.30;;;22.60;99.90;;;;;;4461925;32;20121;-73
2022/08/01 11:25:46;;;;;;;0.20;0.20;;;22.50;99.90;;;;;;4437750;32;20072;-73
2022/08/01 11:28:17;;;;;;;0.20;0.20;;;22.30;99.90;;;;;;4446779;32;20081;-74
2022/08/01 11:30:54;;;;;;;0.20;0.20;;;22.10;99.90;;;;;;4444738;32;20494;-74
2022/08/01 11:33:41;;;;;;;0.20;0.20;;;22.00;99.90;;;;;;4437224;32;20420;-73
2022/08/01 11:36:16;;;;;;;0.22;0.22;;;21.90;99.90;;;;;;4444332;32;20064;-73
2022/08/01 11:38:43;;;;;;;0.30;0.30;;;21.80;99.90;;;;;;4447659;32;20065;-73
2022/08/01 11:41:27;;;;;;;0.40;0.40;;;21.90;99.90;;;;;;4445878;32;20138;-73
2022/08/01 11:44:09;;;;;;;0.10;0.10;;;22.00;99.90;;;;;;4446028;32;20078;-73
2022/08/01 11:46:56;;;;;;;0.30;0.30;;;21.90;99.90;;;;;;4457650;32;20065;-74
2022/08/01 11:49:47;;;;;;;0.28;0.28;;;21.70;99.90;;;;;;4463345;32;20543;-74
2022/08/01 11:52:17;;;;;;;0.20;0.20;;;21.70;99.90;;;;;;4447316;32;20068;-74
2022/08/01 11:54:49;;;;;;;0.20;0.20;;;21.70;99.90;;;;;;4443275;32;20073;-73
2022/08/01 11:57:22;;;;;;;0.57;0.57;;;21.70;99.90;;;;;;4463093;32;20076;-73
2022/08/01 11:59:51;;;;;;;0.10;0.10;;;21.80;99.90;;;;;;4462549;32;20068;-74
2022/08/01 12:02:20;;;;;;;0.20;0.20;;;22.00;99.90;;;;;;4452632;32;20092;-74
2022/08/01 12:04:48;;;;;;;0.20;0.20;;;22.20;99.90;;;;;;4454080;32;20068;-73
2022/08/01 12:07:14;;;;;;;0.22;0.22;;;22.40;99.90;;;;;;4461552;32;20077;-73
2022/08/01 12:09:40;;;;;;;0.20;0.20;;;22.60;99.90;;;;;;4462803;32;20430;-74
2022/08/01 12:12:06;;;;;;;0.22;0.22;;;22.80;99.90;;;;;;4462121;32;20068;-73
2022/08/01 12:14:32;;;;;;;0.20;0.20;;;23.00;99.90;;;;;;4461969;32;20061;-74
2022/08/01 12:16:57;;;;;;;0.30;0.30;;;23.10;99.90;;;;;;4462248;32;20085;-73
2022/08/01 12:19:24;;;;;;;1.00;0.50;;;23.10;99.90;;;;;;4461858;32;20126;-73
2022/08/01 12:22:05;;;;;;;0.30;0.20;;;23.00;99.90;;;;;;4450460;32;20529;-74
2022/08/01 12:24:30;;;;;;;0.20;0.20;;;23.10;99.90;;;;;;4445437;32;20064;-74
2022/08/01 12:26:56;;;;;;;1.40;0.28;;;23.20;99.90;;;;;;4449390;32;20076;-74
2022/08/01 12:29:39;;;;;;;1.45;0.80;;;23.20;99.90;;;;;;4448294;32;20045;-74
2022/08/01 12:32:21;;;;;;;0.10;0.10;;;23.30;99.90;;;;;;4439550;32;20073;-74
2022/08/01 12:34:47;;;;;;;0.20;0.20;;;23.40;99.90;;;;;;4440481;32;20089;-73
2022/08/01 12:37:12;;;;;;;0.40;0.40;;;23.50;99.90;;;;;;4447962;32;20100;-73
2022/08/01 12:39:38;;;;;;;0.10;0.10;;;23.50;99.90;;;;;;4447231;32;20061;-73
2022/08/01 12:42:07;;;;;;;0.10;0.10;;;23.60;99.90;;;;;;4447060;32;20482;-73
2022/08/01 12:44:33;;;;;;;0.20;0.20;;;23.80;99.90;;;;;;4446808;32;20065;-73
2022/08/01 12:47:00;;;;;;;0.13;0.13;;;23.90;99.90;;;;;;4461101;32;20072;-75
2022/08/01 12:49:26;;;;;;;0.43;0.20;;;23.90;99.90;;;;;;4461978;32;20082;-73
2022/08/01 12:51:54;;;;;;;0.15;0.15;;;24.00;99.90;;;;;;4450646;32;21130;-75
2022/08/01 12:54:19;;;;;;;0.20;0.20;;;24.30;99.90;;;;;;4443492;32;20589;-75
2022/08/01 12:56:45;;;;;;;0.10;0.10;;;24.30;99.90;;;;;;4462360;32;20064;-73
2022/08/01 12:59:28;;;;;;;0.20;0.20;;;24.30;99.90;;;;;;4463482;32;20063;-73